createdAt,value
2022-11-09T00:00:50.288Z,100864.50
2022-11-09T00:03:17.935Z,100881.00
2022-11-09T00:05:55.841Z,100831.59
2022-11-09T00:08:23.132Z,100809.91
2022-11-09T00:10:50.592Z,100887.03
2022-11-09T00:13:18.348Z,100858.44
2022-11-09T00:15:45.886Z,100850.63
2022-11-09T00:18:13.171Z,100850.66
2022-11-09T00:20:46.079Z,100833.31
2022-11-09T00:23:17.172Z,100855.00
2022-11-09T00:25:44.977Z,100865.38
2022-11-09T00:28:12.378Z,100865.41
2022-11-09T00:30:40.385Z,100856.75
2022-11-09T00:33:08.864Z,100833.34
2022-11-09T00:35:38.820Z,100855.88
2022-11-09T00:38:06.198Z,100828.13
2022-11-09T00:40:33.560Z,100840.22
2022-11-09T00:43:00.884Z,100831.53
2022-11-09T00:45:28.139Z,100831.53
2022-11-09T00:47:55.541Z,100787.34
2022-11-09T00:50:22.935Z,100832.28
2022-11-09T00:52:50.861Z,100860.88
2022-11-09T00:55:21.043Z,100835.78
2022-11-09T00:57:52.745Z,100841.84
2022-11-09T01:00:23.708Z,100860.81
2022-11-09T01:02:51.333Z,100847.72
2022-11-09T01:05:19.747Z,100829.56
2022-11-09T01:07:49.534Z,100850.44
2022-11-09T01:10:16.912Z,100827.09
2022-11-09T01:12:44.202Z,100849.44
2022-11-09T01:15:11.560Z,100846.84
2022-11-09T01:17:38.951Z,100819.25
2022-11-09T01:20:06.874Z,100823.59
2022-11-09T01:22:34.170Z,100840.03
2022-11-09T01:25:01.551Z,100824.41
2022-11-09T01:27:28.938Z,100870.34
2022-11-09T01:29:56.226Z,100807.97
2022-11-09T01:32:24.899Z,100808.84
2022-11-09T01:34:52.194Z,100822.69
2022-11-09T01:37:19.559Z,100833.91
2022-11-09T01:39:46.919Z,100831.19
2022-11-09T01:42:15.166Z,100857.25
2022-11-09T01:44:43.028Z,100830.31
2022-11-09T01:47:24.951Z,100843.31
2022-11-09T01:49:57.024Z,100844.06
2022-11-09T01:52:27.361Z,100856.97
2022-11-09T01:55:02.020Z,100867.59
2022-11-09T01:57:33.531Z,100865.81
2022-11-09T02:00:07.490Z,100862.44
2022-11-09T02:02:46.265Z,100861.59
2022-11-09T02:05:18.085Z,100828.56
2022-11-09T02:07:49.851Z,100842.38
2022-11-09T02:10:49.419Z,100850.16
2022-11-09T02:13:20.174Z,100854.34
2022-11-09T02:15:49.419Z,100853.56
2022-11-09T02:18:17.497Z,100797.06
2022-11-09T02:20:53.921Z,100831.53
2022-11-09T02:23:25.989Z,100844.47
2022-11-09T02:26:07.192Z,100824.53
2022-11-09T02:28:37.217Z,100843.50
2022-11-09T02:31:08.310Z,100786.34
2022-11-09T02:33:54.343Z,100842.53
2022-11-09T02:36:23.913Z,100807.81
2022-11-09T02:38:56.231Z,100802.66
2022-11-09T02:41:24.734Z,100838.09
2022-11-09T02:43:54.079Z,100766.25
2022-11-09T02:46:32.331Z,100815.50
2022-11-09T02:49:01.065Z,100818.09
2022-11-09T02:51:29.017Z,100830.91
2022-11-09T02:53:56.513Z,100824.03
2022-11-09T02:56:24.619Z,100824.03
2022-11-09T02:58:52.609Z,100798.03
2022-11-09T03:01:20.191Z,100783.16
2022-11-09T03:03:47.874Z,100795.34
2022-11-09T03:06:15.279Z,100752.81
2022-11-09T03:08:45.332Z,100821.28
2022-11-09T03:11:14.241Z,100791.66
2022-11-09T03:13:41.685Z,100796.88
2022-11-09T03:16:09.853Z,100797.69
2022-11-09T03:18:39.686Z,100812.44
2022-11-09T03:21:07.479Z,100777.78
2022-11-09T03:23:34.883Z,100800.16
2022-11-09T03:26:03.266Z,100801.03
2022-11-09T03:28:30.781Z,100797.47
2022-11-09T03:30:58.487Z,100800.13
2022-11-09T03:33:26.274Z,100795.16
2022-11-09T03:35:53.566Z,100812.44
2022-11-09T03:38:20.941Z,100777.81
2022-11-09T03:40:49.343Z,100807.09
2022-11-09T03:43:17.610Z,100802.56
2022-11-09T03:45:46.831Z,100823.31
2022-11-09T03:48:14.251Z,100771.38
2022-11-09T03:50:41.598Z,100782.69
2022-11-09T03:53:10.769Z,100791.25
2022-11-09T03:55:38.902Z,100769.78
2022-11-09T03:58:07.542Z,100816.56
2022-11-09T04:00:36.175Z,100787.06
2022-11-09T04:03:03.483Z,100819.88
2022-11-09T04:05:30.778Z,100757.47
2022-11-09T04:07:58.495Z,100799.97
2022-11-09T04:10:26.574Z,100793.75
2022-11-09T04:12:54.269Z,100778.38
2022-11-09T04:15:21.968Z,100773.97
2022-11-09T04:18:01.014Z,100804.28
2022-11-09T04:20:30.381Z,100797.22
2022-11-09T04:23:00.686Z,100794.75
2022-11-09T04:25:29.198Z,100801.63
2022-11-09T04:27:58.199Z,100798.09
2022-11-09T04:30:29.791Z,100795.53
2022-11-09T04:32:58.251Z,100754.88
2022-11-09T04:35:27.262Z,100753.09
2022-11-09T04:37:56.116Z,100763.59
2022-11-09T04:40:24.499Z,100772.22
2022-11-09T04:42:52.115Z,100783.25
2022-11-09T04:45:20.558Z,100790.34
2022-11-09T04:47:48.617Z,100759.19
2022-11-09T04:50:16.305Z,100792.19
2022-11-09T04:52:43.567Z,100769.38
2022-11-09T04:55:10.891Z,100787.69
2022-11-09T04:57:38.151Z,100786.13
2022-11-09T05:00:05.849Z,100794.88
2022-11-09T05:02:33.279Z,100754.88
2022-11-09T05:05:00.582Z,100775.84
2022-11-09T05:07:27.889Z,100778.13
2022-11-09T05:09:55.185Z,100741.03
2022-11-09T05:12:22.472Z,100780.69
2022-11-09T05:14:49.808Z,100798.16
2022-11-09T05:17:17.141Z,100801.84
2022-11-09T05:19:44.426Z,100772.56
2022-11-09T05:22:30.421Z,100755.25
2022-11-09T05:24:57.742Z,100793.13
2022-11-09T05:27:25.029Z,100819.03
2022-11-09T05:29:52.467Z,100793.13
2022-11-09T05:32:19.790Z,100769.88
2022-11-09T05:34:47.131Z,100773.16
2022-11-09T05:37:14.470Z,100787.03
2022-11-09T05:39:41.831Z,100770.34
2022-11-09T05:42:10.306Z,100780.03
2022-11-09T05:44:37.699Z,100767.94
2022-11-09T05:47:05.139Z,100813.09
2022-11-09T05:49:32.578Z,100831.19
2022-11-09T05:51:59.872Z,100826.91
2022-11-09T05:54:27.171Z,100774.78
2022-11-09T05:56:54.512Z,100822.50
2022-11-09T05:59:21.876Z,100837.59
2022-11-09T06:01:49.350Z,100820.00
2022-11-09T06:04:16.726Z,100856.28
2022-11-09T06:06:44.426Z,100859.94
2022-11-09T06:09:11.789Z,100827.97
2022-11-09T06:11:39.231Z,100839.00
2022-11-09T06:14:06.563Z,100854.47
2022-11-09T06:16:33.921Z,100841.28
2022-11-09T06:19:02.084Z,100832.75
2022-11-09T06:21:29.480Z,100831.47
2022-11-09T06:23:56.755Z,100832.25
2022-11-09T06:26:24.033Z,100849.97
2022-11-09T06:28:51.419Z,100840.59
2022-11-09T06:31:20.610Z,100809.97
2022-11-09T06:33:48.053Z,100831.84
2022-11-09T06:36:15.417Z,100847.47
2022-11-09T06:38:42.961Z,100865.56
2022-11-09T06:41:10.840Z,100863.66
2022-11-09T06:43:38.251Z,100843.16
2022-11-09T06:46:06.312Z,100880.00
2022-11-09T06:48:33.809Z,100849.34
2022-11-09T06:51:02.112Z,100866.09
2022-11-09T06:53:30.790Z,100842.94
2022-11-09T06:55:59.792Z,100855.88
2022-11-09T06:58:27.635Z,100876.56
2022-11-09T07:00:55.711Z,100875.63
2022-11-09T07:03:24.121Z,100852.59
2022-11-09T07:05:53.245Z,100888.91
2022-11-09T07:08:20.913Z,100880.31
2022-11-09T07:10:48.619Z,100878.41
2022-11-09T07:13:15.943Z,100868.09
2022-11-09T07:15:43.392Z,100858.75
2022-11-09T07:18:12.809Z,100863.09
2022-11-09T07:20:40.315Z,100888.00
2022-11-09T07:23:07.620Z,100853.19
2022-11-09T07:25:36.019Z,100873.75
2022-11-09T07:28:08.942Z,100871.06
2022-11-09T07:30:37.105Z,100866.06
2022-11-09T07:33:11.351Z,100857.00
2022-11-09T07:35:38.708Z,100845.78
2022-11-09T07:38:06.498Z,100871.63
2022-11-09T07:40:34.810Z,100855.41
2022-11-09T07:43:04.104Z,100836.91
2022-11-09T07:45:33.703Z,100857.06
2022-11-09T07:48:04.082Z,100841.47
2022-11-09T07:50:32.702Z,100838.75
2022-11-09T07:53:01.198Z,100859.25
2022-11-09T07:55:29.980Z,100850.81
2022-11-09T07:58:03.522Z,100837.47
2022-11-09T08:00:32.465Z,100832.03
2022-11-09T08:02:59.931Z,100793.25
2022-11-09T08:05:27.895Z,100809.44
2022-11-09T08:08:00.592Z,100812.22
2022-11-09T08:10:29.523Z,100837.69
2022-11-09T08:13:02.443Z,100821.13
2022-11-09T08:15:30.454Z,100815.63
2022-11-09T08:18:19.140Z,100815.50
2022-11-09T08:20:47.164Z,100809.31
2022-11-09T08:23:17.038Z,100827.41
2022-11-09T08:25:44.769Z,100826.31
2022-11-09T08:28:15.840Z,100823.66
2022-11-09T08:30:44.707Z,100829.47
2022-11-09T08:33:12.751Z,100843.72
2022-11-09T08:35:40.211Z,100817.75
2022-11-09T08:38:07.526Z,100837.50
2022-11-09T08:40:35.114Z,100813.06
2022-11-09T08:43:05.271Z,100818.25
2022-11-09T08:45:35.391Z,100838.06
2022-11-09T08:48:03.910Z,100815.28
2022-11-09T08:50:32.505Z,100808.47
2022-11-09T08:53:01.357Z,100830.38
2022-11-09T08:55:29.107Z,100835.75
2022-11-09T08:57:58.512Z,100832.50
2022-11-09T09:00:26.321Z,100816.91
2022-11-09T09:02:53.964Z,100811.16
2022-11-09T09:05:22.120Z,100834.69
2022-11-09T09:07:49.647Z,100824.91
2022-11-09T09:10:17.102Z,100840.47
2022-11-09T09:12:44.513Z,100848.59
2022-11-09T09:15:12.023Z,100841.16
2022-11-09T09:17:39.258Z,100791.53
2022-11-09T09:20:07.079Z,100822.25
2022-11-09T09:22:34.973Z,100815.13
2022-11-09T09:25:02.865Z,100848.06
2022-11-09T09:27:30.694Z,100839.59
2022-11-09T09:29:58.543Z,100858.28
2022-11-09T09:32:26.296Z,100812.94
2022-11-09T09:34:53.570Z,100814.72
2022-11-09T09:37:21.756Z,100835.06
2022-11-09T09:39:50.939Z,100800.81
2022-11-09T09:42:22.675Z,100821.28
2022-11-09T09:44:56.953Z,100832.53
2022-11-09T09:47:29.146Z,100821.03
2022-11-09T09:50:03.921Z,100801.63
2022-11-09T09:53:17.605Z,100832.50
2022-11-09T09:55:44.705Z,100791.34
2022-11-09T09:58:46.154Z,100819.53
2022-11-09T10:01:23.995Z,100828.16
2022-11-09T10:03:51.518Z,100780.69
2022-11-09T10:06:40.699Z,100816.53
2022-11-09T10:09:42.139Z,100818.22
2022-11-09T10:12:21.597Z,100797.53
2022-11-09T10:15:14.065Z,100804.06
2022-11-09T10:18:01.795Z,100796.38
2022-11-09T10:20:37.154Z,100788.25
2022-11-09T10:23:19.635Z,100774.59
2022-11-09T10:26:14.489Z,100754.47
2022-11-09T10:29:13.856Z,100773.28
2022-11-09T10:31:33.993Z,100763.78
2022-11-09T10:34:26.647Z,100769.88
2022-11-09T10:37:01.752Z,100772.72
2022-11-09T10:39:42.363Z,100729.94
2022-11-09T10:42:27.894Z,100757.09
2022-11-09T10:45:25.415Z,100773.41
2022-11-09T10:48:13.213Z,100738.28
2022-11-09T10:50:59.233Z,100769.47
2022-11-09T10:53:45.112Z,100751.50
2022-11-09T10:59:57.904Z,100764.31
2022-11-09T11:02:46.325Z,100740.69
2022-11-09T11:05:33.747Z,100747.53
2022-11-09T11:08:26.312Z,100758.91
2022-11-09T11:11:36.155Z,100748.34
2022-11-09T11:14:29.122Z,100752.34
2022-11-09T11:17:25.419Z,100754.28
2022-11-09T11:20:35.429Z,100755.19
2022-11-09T11:23:25.396Z,100759.66
2022-11-09T11:26:23.650Z,100757.41
2022-11-09T11:29:22.011Z,100746.88
2022-11-09T11:32:15.452Z,100743.75
2022-11-09T11:35:02.300Z,100723.84
2022-11-09T11:38:03.248Z,100728.47
2022-11-09T11:41:20.709Z,100722.22
2022-11-09T11:44:24.786Z,100725.03
2022-11-09T11:47:16.422Z,100716.09
2022-11-09T11:50:20.694Z,100686.97
2022-11-09T11:53:22.294Z,100726.97
2022-11-09T11:56:17.839Z,100697.69
2022-11-09T11:59:38.412Z,100696.31
2022-11-09T12:02:43.323Z,100712.47
2022-11-09T12:05:47.432Z,100701.91
2022-11-09T12:09:07.330Z,100695.25
2022-11-09T12:12:00.386Z,100704.44
2022-11-09T12:14:46.558Z,100698.03
2022-11-09T12:17:43.151Z,100689.94
2022-11-09T12:20:55.520Z,100687.38
2022-11-09T12:24:02.924Z,100698.34
2022-11-09T12:27:30.994Z,100691.63
2022-11-09T12:30:19.229Z,100687.13
2022-11-09T12:33:13.259Z,100689.19
2022-11-09T12:36:08.284Z,100680.47
2022-11-09T12:39:11.839Z,100688.28
2022-11-09T12:42:04.362Z,100692.63
2022-11-09T12:45:13.559Z,100669.53
2022-11-09T12:48:05.131Z,100669.81
2022-11-09T12:50:52.704Z,100681.34
2022-11-09T12:53:39.387Z,100671.09
2022-11-09T12:56:31.267Z,100677.28
2022-11-09T12:59:22.390Z,100687.06
2022-11-09T13:02:28.979Z,100662.13
2022-11-09T13:05:33.466Z,100669.66
2022-11-09T13:08:31.772Z,100673.59
2022-11-09T13:11:42.550Z,100684.25
2022-11-09T13:14:37.987Z,100683.50
2022-11-09T13:17:24.585Z,100682.66
2022-11-09T13:24:00.132Z,100673.16
2022-11-09T13:26:46.733Z,100683.97
2022-11-09T13:29:38.931Z,100689.03
2022-11-09T13:32:26.765Z,100686.34
2022-11-09T13:35:38.495Z,100683.94
2022-11-09T13:38:28.362Z,100686.88
2022-11-09T13:41:29.730Z,100696.56
2022-11-09T13:44:27.748Z,100696.84
2022-11-09T13:47:27.865Z,100677.94
2022-11-09T13:50:26.289Z,100677.59
2022-11-09T13:53:29.159Z,100687.00
2022-11-09T13:56:27.296Z,100689.16
2022-11-09T13:59:13.478Z,100689.84
2022-11-09T14:02:01.211Z,100681.03
2022-11-09T14:04:47.317Z,100664.00
2022-11-09T14:07:35.313Z,100630.09
2022-11-09T14:10:51.382Z,100686.34
2022-11-09T14:13:39.942Z,100690.22
2022-11-09T14:16:35.050Z,100691.94
2022-11-09T14:20:12.021Z,100698.34
2022-11-09T14:22:58.038Z,100682.75
2022-11-09T14:25:45.530Z,100687.31
2022-11-09T14:28:32.842Z,100672.78
2022-11-09T14:31:28.134Z,100673.13
2022-11-09T14:34:16.572Z,100672.53
2022-11-09T14:37:06.059Z,100677.53
2022-11-09T14:39:54.199Z,100675.94
2022-11-09T14:42:45.873Z,100671.25
2022-11-09T14:45:32.169Z,100686.09
2022-11-09T14:48:20.709Z,100685.28
2022-11-09T14:51:12.134Z,100671.81
2022-11-09T14:54:00.575Z,100689.50
2022-11-09T14:56:46.791Z,100693.31
2022-11-09T14:59:34.703Z,100692.91
2022-11-09T15:02:22.218Z,100689.81
2022-11-09T15:05:27.653Z,100695.53
2022-11-09T15:08:21.488Z,100682.75
2022-11-09T15:11:08.070Z,100703.97
2022-11-09T15:13:54.229Z,100689.44
2022-11-09T15:16:40.455Z,100688.13
2022-11-09T15:19:37.137Z,100699.63
2022-11-09T15:22:45.163Z,100705.88
2022-11-09T15:25:41.714Z,100681.84
2022-11-09T15:28:29.256Z,100690.69
2022-11-09T15:31:17.133Z,100695.22
2022-11-09T15:34:18.624Z,100660.34
2022-11-09T15:37:18.484Z,100700.38
2022-11-09T15:40:13.746Z,100687.84
2022-11-09T15:42:59.214Z,100683.00
2022-11-09T15:45:45.139Z,100692.63
2022-11-09T15:48:31.801Z,100700.72
2022-11-09T15:51:18.125Z,100690.69
2022-11-09T15:54:04.239Z,100677.44
2022-11-09T15:56:51.346Z,100701.66
2022-11-09T15:59:37.233Z,100698.16
2022-11-09T16:02:23.275Z,100690.97
2022-11-09T16:05:09.608Z,100696.56
2022-11-09T16:07:55.726Z,100684.28
2022-11-09T16:10:43.473Z,100694.66
2022-11-09T16:13:29.515Z,100648.94
2022-11-09T16:16:16.231Z,100681.56
2022-11-09T16:19:02.235Z,100683.34
2022-11-09T16:21:48.134Z,100680.75
2022-11-09T16:24:34.160Z,100691.19
2022-11-09T16:27:43.335Z,100677.09
2022-11-09T16:30:25.634Z,100692.03
2022-11-09T16:33:11.517Z,100689.16
2022-11-09T16:36:00.678Z,100707.81
2022-11-09T16:38:51.795Z,100705.38
2022-11-09T16:41:41.933Z,100700.28
2022-11-09T16:44:34.209Z,100717.69
2022-11-09T16:47:25.903Z,100701.38
2022-11-09T16:50:11.754Z,100721.69
2022-11-09T16:52:57.722Z,100726.97
2022-11-09T16:55:43.633Z,100704.09
2022-11-09T16:58:29.458Z,100701.13
2022-11-09T17:01:17.736Z,100707.53
2022-11-09T17:04:08.511Z,100706.22
2022-11-09T17:06:54.703Z,100723.06
2022-11-09T17:09:40.607Z,100719.88
2022-11-09T17:12:26.671Z,100712.91
2022-11-09T17:15:12.710Z,100713.59
2022-11-09T17:17:58.843Z,100697.72
2022-11-09T17:20:50.348Z,100725.09
2022-11-09T17:23:36.578Z,100720.47
2022-11-09T17:26:23.384Z,100738.69
2022-11-09T17:29:09.003Z,100719.34
2022-11-09T17:31:55.006Z,100712.97
2022-11-09T17:34:40.777Z,100720.16
2022-11-09T17:37:26.840Z,100706.81
2022-11-09T17:40:12.837Z,100719.41
2022-11-09T17:42:59.668Z,100716.50
2022-11-09T17:45:45.383Z,100718.91
2022-11-09T17:48:32.952Z,100733.50
2022-11-09T17:51:19.930Z,100728.28
2022-11-09T17:54:06.223Z,100715.28
2022-11-09T17:56:52.196Z,100715.72
2022-11-09T17:59:40.805Z,100680.03
2022-11-09T18:02:26.678Z,100703.63
2022-11-09T18:05:13.998Z,100710.47
2022-11-09T18:07:59.839Z,100720.47
2022-11-09T18:10:49.593Z,100718.16
2022-11-09T18:13:35.516Z,100706.75
2022-11-09T18:16:21.051Z,100709.03
2022-11-09T18:19:07.302Z,100695.41
2022-11-09T18:21:53.492Z,100707.41
2022-11-09T18:24:39.523Z,100704.88
2022-11-09T18:27:30.067Z,100677.81
2022-11-09T18:30:17.188Z,100682.03
2022-11-09T18:33:02.729Z,100692.50
2022-11-09T18:35:57.124Z,100680.34
2022-11-09T18:38:44.097Z,100693.06
2022-11-09T18:41:30.393Z,100681.63
2022-11-09T18:44:17.234Z,100688.44
2022-11-09T18:47:05.579Z,100673.16
2022-11-09T18:49:52.731Z,100694.84
2022-11-09T18:52:38.822Z,100676.34
2022-11-09T18:55:24.643Z,100669.44
2022-11-09T18:58:10.511Z,100673.59
2022-11-09T19:01:01.399Z,100666.06
2022-11-09T19:03:47.257Z,100658.38
2022-11-09T19:06:35.086Z,100676.38
2022-11-09T19:09:31.506Z,100666.16
2022-11-09T19:12:17.515Z,100657.50
2022-11-09T19:15:03.422Z,100670.84
2022-11-09T19:17:51.395Z,100663.25
2022-11-09T19:20:40.662Z,100637.63
2022-11-09T19:23:32.824Z,100659.22
2022-11-09T19:26:21.927Z,100665.19
2022-11-09T19:29:08.835Z,100673.81
2022-11-09T19:31:55.162Z,100662.50
2022-11-09T19:34:42.854Z,100665.25
2022-11-09T19:37:28.901Z,100657.41
2022-11-09T19:40:15.176Z,100670.19
2022-11-09T19:43:03.843Z,100658.00
2022-11-09T19:45:49.589Z,100648.63
2022-11-09T19:48:35.745Z,100666.72
2022-11-09T19:51:21.757Z,100673.69
2022-11-09T19:54:08.042Z,100662.28
2022-11-09T19:56:53.700Z,100660.69
2022-11-09T19:59:39.787Z,100658.16
2022-11-09T20:02:25.761Z,100661.53
2022-11-09T20:05:11.889Z,100653.78
2022-11-09T20:07:57.738Z,100659.94
2022-11-09T20:10:43.638Z,100659.00
2022-11-09T20:13:29.600Z,100673.91
2022-11-09T20:16:15.716Z,100658.16
2022-11-09T20:19:03.074Z,100672.78
2022-11-09T20:21:49.676Z,100631.59
2022-11-09T20:24:35.479Z,100663.31
2022-11-09T20:27:21.378Z,100651.25
2022-11-09T20:30:07.712Z,100658.22
2022-11-09T20:32:53.866Z,100656.31
2022-11-09T20:35:42.969Z,100660.75
2022-11-09T20:38:32.897Z,100680.84
2022-11-09T20:41:22.930Z,100668.75
2022-11-09T20:44:10.768Z,100654.19
2022-11-09T20:46:56.658Z,100660.38
2022-11-09T20:49:42.536Z,100659.78
2022-11-09T20:52:28.562Z,100678.22
2022-11-09T20:55:15.031Z,100677.53
2022-11-09T20:58:00.452Z,100680.06
2022-11-09T21:00:46.391Z,100680.16
2022-11-09T21:03:33.332Z,100665.66
2022-11-09T21:06:21.224Z,100679.69
2022-11-09T21:09:07.567Z,100678.81
2022-11-09T21:12:13.647Z,100671.06
2022-11-09T21:14:59.531Z,100650.44
2022-11-09T21:17:46.558Z,100670.91
2022-11-09T21:20:33.078Z,100664.75
2022-11-09T21:23:19.292Z,100665.56
2022-11-09T21:26:23.500Z,100668.91
2022-11-09T21:29:29.846Z,100668.84
2022-11-09T21:32:15.852Z,100675.50
2022-11-09T21:35:02.198Z,100679.63
2022-11-09T21:37:47.788Z,100674.38
2022-11-09T21:40:33.508Z,100668.22
2022-11-09T21:43:19.648Z,100651.72
2022-11-09T21:46:06.659Z,100650.81
2022-11-09T21:48:53.016Z,100654.13
2022-11-09T21:51:44.944Z,100663.59
2022-11-09T21:54:30.723Z,100650.00
2022-11-09T21:57:18.129Z,100673.91
2022-11-09T22:00:07.223Z,100668.41
2022-11-09T22:05:52.547Z,100673.25
2022-11-09T22:08:43.857Z,100673.13
2022-11-09T22:11:51.242Z,100646.06
2022-11-09T22:14:58.508Z,100674.91
2022-11-09T22:17:45.442Z,100672.69
2022-11-09T22:20:49.706Z,100659.94
2022-11-09T22:23:35.962Z,100664.06
2022-11-09T22:26:21.914Z,100669.56
2022-11-09T22:29:07.920Z,100677.16
2022-11-09T22:31:53.990Z,100670.97
2022-11-09T22:34:39.720Z,100663.69
2022-11-09T22:37:25.642Z,100674.47
2022-11-09T22:40:11.898Z,100679.84
2022-11-09T22:42:58.224Z,100684.34
2022-11-09T22:45:44.092Z,100675.78
2022-11-09T22:48:34.462Z,100692.91
2022-11-09T22:51:20.620Z,100675.28
2022-11-09T22:54:06.566Z,100664.34
2022-11-09T22:56:52.740Z,100670.56
2022-11-09T22:59:38.823Z,100675.09
2022-11-09T23:02:24.737Z,100677.03
2022-11-09T23:05:10.456Z,100680.47
2022-11-09T23:07:56.682Z,100683.22
2022-11-09T23:10:43.044Z,100683.19
2022-11-09T23:13:29.731Z,100675.69
2022-11-09T23:16:15.871Z,100679.16
2022-11-09T23:19:01.527Z,100668.78
2022-11-09T23:21:47.545Z,100686.97
2022-11-09T23:24:51.987Z,100665.28
2022-11-09T23:27:37.994Z,100669.75
2022-11-09T23:30:23.916Z,100674.09
2022-11-09T23:33:10.519Z,100668.88
2022-11-09T23:35:57.357Z,100688.66
2022-11-09T23:38:43.590Z,100675.69
2022-11-09T23:41:29.744Z,100676.47
2022-11-09T23:44:15.314Z,100674.06
2022-11-09T23:47:01.725Z,100682.00
2022-11-09T23:49:47.635Z,100672.63
2022-11-09T23:52:34.040Z,100686.34
2022-11-09T23:55:19.706Z,100684.13
2022-11-09T23:58:06.895Z,100680.63
